Time;durP1;ratioP1;P1;durP2;ratioP2;P2;SDS_P1;SDS_P2;PMS_P1;PMS_P2;Temp;Humidity;BMP_temperature;BMP_pressure;BME280_temperature;BME280_humidity;BME280_pressure;Samples;Min_cycle;Max_cycle;Signal;HPM_P1;HPM_P2
2023/01/31 00:00:06;;;;;;;33.90;5.75;;;4.00;99.90;;;;;;5094719;28;20057;-63
2023/01/31 00:02:32;;;;;;;27.60;5.30;;;4.00;99.90;;;;;;5094472;28;20024;-64
2023/01/31 00:04:58;;;;;;;33.58;6.13;;;4.00;99.90;;;;;;5094679;28;20032;-63
2023/01/31 00:07:23;;;;;;;30.40;5.93;;;3.90;99.90;;;;;;5094320;28;20028;-63
2023/01/31 00:09:49;;;;;;;31.70;4.88;;;3.90;99.90;;;;;;5094285;28;20027;-63
2023/01/31 00:12:14;;;;;;;47.55;7.07;;;3.80;99.90;;;;;;5092988;28;20016;-63
2023/01/31 00:14:40;;;;;;;32.30;6.43;;;3.80;99.90;;;;;;5093926;28;20164;-63
2023/01/31 00:17:05;;;;;;;33.75;6.72;;;3.80;99.90;;;;;;5094157;28;20020;-63
2023/01/31 00:19:31;;;;;;;37.50;5.45;;;3.70;99.90;;;;;;5094137;28;20481;-64
2023/01/31 00:21:57;;;;;;;30.73;5.15;;;3.80;99.90;;;;;;5094340;28;20485;-63
2023/01/31 00:24:23;;;;;;;30.00;5.45;;;3.80;99.90;;;;;;5093417;28;20157;-63
2023/01/31 00:26:55;;;;;;;33.47;5.43;;;3.70;99.90;;;;;;5093972;28;20103;-63
2023/01/31 00:29:22;;;;;;;32.13;5.18;;;3.70;99.90;;;;;;5094184;28;20031;-63
2023/01/31 00:31:48;;;;;;;37.00;6.25;;;3.70;99.90;;;;;;5094164;28;20446;-63
2023/01/31 00:34:13;;;;;;;31.65;5.70;;;3.60;99.90;;;;;;5093848;28;20051;-63
2023/01/31 00:36:39;;;;;;;36.65;5.38;;;3.60;99.90;;;;;;5093716;28;20066;-63
2023/01/31 00:39:06;;;;;;;35.03;6.20;;;3.60;99.90;;;;;;5094035;28;20457;-63
2023/01/31 00:41:33;;;;;;;44.00;6.13;;;3.70;99.90;;;;;;5093713;28;20020;-64
2023/01/31 00:44:00;;;;;;;39.38;7.57;;;3.70;99.90;;;;;;5093923;28;20469;-63
2023/01/31 00:46:26;;;;;;;39.33;6.47;;;3.70;99.90;;;;;;5093621;28;20039;-63
2023/01/31 00:48:52;;;;;;;37.83;6.85;;;3.60;99.90;;;;;;5093618;28;20024;-63
2023/01/31 00:51:19;;;;;;;36.53;6.00;;;3.60;99.90;;;;;;5093883;28;20032;-63
2023/01/31 00:53:45;;;;;;;39.50;5.93;;;3.50;99.90;;;;;;5093528;28;20023;-63
2023/01/31 00:56:13;;;;;;;33.40;6.35;;;3.50;99.90;;;;;;5093461;28;20539;-63
2023/01/31 00:58:39;;;;;;;30.73;5.18;;;3.40;99.90;;;;;;5093512;28;20062;-63
2023/01/31 01:01:11;;;;;;;31.35;5.70;;;3.40;99.90;;;;;;5093535;28;20394;-63
2023/01/31 01:03:38;;;;;;;39.50;5.90;;;3.30;99.90;;;;;;5093458;28;20363;-63
2023/01/31 01:06:04;;;;;;;30.40;6.13;;;3.30;99.90;;;;;;5093388;28;20024;-63
2023/01/31 01:08:30;;;;;;;33.60;5.35;;;3.20;99.90;;;;;;5093445;28;20073;-63
2023/01/31 01:11:02;;;;;;;38.35;6.00;;;3.20;99.90;;;;;;5093344;28;20024;-63
2023/01/31 01:13:28;;;;;;;40.63;6.87;;;3.10;99.90;;;;;;5092200;28;20028;-63
2023/01/31 01:15:53;;;;;;;28.90;5.88;;;3.20;99.90;;;;;;5093018;28;20059;-63
2023/01/31 01:18:19;;;;;;;33.45;6.30;;;3.10;99.90;;;;;;5093234;28;20024;-63
2023/01/31 01:20:44;;;;;;;50.08;6.82;;;3.10;99.90;;;;;;5093235;28;20024;-63
2023/01/31 01:23:10;;;;;;;36.28;6.50;;;3.10;99.90;;;;;;5093186;28;20028;-63
2023/01/31 01:25:41;;;;;;;39.20;6.47;;;3.10;99.90;;;;;;5093181;28;20036;-63
2023/01/31 01:28:07;;;;;;;31.98;5.50;;;3.10;99.90;;;;;;5091954;28;20028;-63
2023/01/31 01:30:32;;;;;;;37.30;6.63;;;3.10;99.90;;;;;;5093240;28;20028;-63
2023/01/31 01:32:58;;;;;;;41.63;6.78;;;3.10;99.90;;;;;;5093180;28;20028;-63
2023/01/31 01:35:23;;;;;;;38.72;6.45;;;3.10;99.90;;;;;;5091876;28;20032;-63
2023/01/31 01:37:49;;;;;;;33.75;7.63;;;3.10;99.90;;;;;;5094787;28;20386;-63
2023/01/31 01:40:15;;;;;;;39.25;6.55;;;3.10;99.90;;;;;;5097142;28;20032;-63
2023/01/31 01:42:40;;;;;;;49.15;7.47;;;3.10;99.90;;;;;;5096046;28;20555;-63
2023/01/31 01:45:14;;;;;;;40.00;6.40;;;3.10;99.90;;;;;;5095921;28;20024;-63
2023/01/31 01:47:49;;;;;;;41.78;7.03;;;3.20;99.90;;;;;;5097054;28;20032;-63
2023/01/31 01:50:35;;;;;;;41.03;7.13;;;3.10;99.90;;;;;;5097242;28;20046;-63
2023/01/31 01:53:09;;;;;;;39.10;7.45;;;3.10;99.90;;;;;;5097023;28;20373;-63
2023/01/31 01:55:41;;;;;;;34.92;6.90;;;3.20;99.90;;;;;;5096877;28;20474;-63
2023/01/31 01:58:13;;;;;;;40.83;8.88;;;3.10;99.90;;;;;;5096900;28;20020;-63
2023/01/31 02:00:38;;;;;;;47.97;8.85;;;3.00;99.90;;;;;;5096840;28;20473;-63
2023/01/31 02:03:06;;;;;;;48.65;9.90;;;3.00;99.90;;;;;;5096768;28;20035;-63
2023/01/31 02:05:51;;;;;;;39.28;8.82;;;3.00;99.90;;;;;;5096638;28;20024;-63
2023/01/31 02:08:21;;;;;;;43.65;8.48;;;2.90;99.90;;;;;;5096881;28;20028;-63
2023/01/31 02:10:53;;;;;;;44.97;9.32;;;3.00;99.90;;;;;;5096635;28;20032;-63
2023/01/31 02:13:19;;;;;;;25.73;8.20;;;3.00;99.90;;;;;;5095628;28;20039;-63
2023/01/31 02:15:45;;;;;;;46.13;9.25;;;3.10;99.90;;;;;;5096349;28;20043;-63
2023/01/31 02:18:11;;;;;;;39.78;9.20;;;3.10;99.90;;;;;;5096479;28;20381;-63
2023/01/31 02:21:14;;;;;;;41.80;10.02;;;3.10;99.90;;;;;;5096440;28;20062;-63
2023/01/31 02:24:19;;;;;;;34.90;8.10;;;3.20;99.90;;;;;;5096269;28;20023;-63
2023/01/31 02:27:25;;;;;;;41.40;9.38;;;3.20;99.90;;;;;;5096255;28;20103;-63
2023/01/31 02:30:19;;;;;;;42.15;8.10;;;3.30;99.90;;;;;;5096091;28;20027;-63
2023/01/31 02:33:23;;;;;;;41.53;9.02;;;3.40;99.90;;;;;;5096130;28;20497;-63
2023/01/31 02:36:08;;;;;;;47.13;8.65;;;3.50;99.90;;;;;;5095902;28;20397;-63
2023/01/31 02:38:55;;;;;;;39.00;9.40;;;3.60;99.90;;;;;;5096147;28;20016;-64
2023/01/31 02:41:35;;;;;;;45.92;8.48;;;3.70;99.90;;;;;;5094842;28;20035;-63
2023/01/31 02:47:37;;;;;;;45.30;8.25;;;3.70;99.90;;;;;;5095524;28;20027;-63
2023/01/31 02:50:25;;;;;;;39.95;8.40;;;3.70;99.90;;;;;;5095842;28;20016;-63
2023/01/31 02:52:59;;;;;;;40.13;8.52;;;3.80;99.90;;;;;;5095037;28;20390;-63
2023/01/31 02:58:28;;;;;;;42.88;8.55;;;3.90;99.90;;;;;;5095502;28;20028;-63
2023/01/31 03:00:58;;;;;;;42.83;8.90;;;3.90;99.90;;;;;;5095666;28;20021;-63
2023/01/31 03:03:30;;;;;;;32.30;7.57;;;3.90;99.90;;;;;;5095606;28;20092;-64
2023/01/31 03:06:32;;;;;;;46.42;9.25;;;3.90;99.90;;;;;;5095565;28;20077;-63
2023/01/31 03:09:23;;;;;;;46.55;8.07;;;4.10;99.90;;;;;;5095418;28;20027;-63
2023/01/31 03:12:13;;;;;;;35.10;7.78;;;4.10;99.90;;;;;;5095401;28;20032;-63
2023/01/31 03:14:51;;;;;;;33.10;7.30;;;4.10;99.90;;;;;;5095201;28;20059;-63
2023/01/31 03:17:35;;;;;;;29.77;6.85;;;4.10;99.90;;;;;;5095361;28;20021;-63
2023/01/31 03:20:23;;;;;;;32.80;6.80;;;4.10;99.90;;;;;;5095332;28;20016;-64
2023/01/31 03:23:00;;;;;;;28.58;6.82;;;4.20;99.90;;;;;;5095213;28;20035;-63
2023/01/31 03:25:33;;;;;;;34.40;6.88;;;4.20;99.90;;;;;;5093952;28;20077;-63
2023/01/31 03:28:00;;;;;;;;;;;4.20;99.90;;;;;;5094395;28;20093;-63
2023/01/31 03:30:38;;;;;;;37.95;7.78;;;4.20;99.90;;;;;;5095050;28;20319;-63
2023/01/31 03:33:18;;;;;;;29.33;7.50;;;4.10;99.90;;;;;;5095112;28;20055;-64
2023/01/31 03:35:54;;;;;;;28.33;7.80;;;4.10;99.90;;;;;;5094869;28;20031;-63
2023/01/31 03:38:25;;;;;;;48.53;8.48;;;4.10;99.90;;;;;;5094875;28;20021;-63
2023/01/31 03:41:00;;;;;;;33.53;7.63;;;4.10;99.90;;;;;;5094858;28;20019;-63
2023/01/31 03:46:36;;;;;;;43.92;7.72;;;4.00;99.90;;;;;;5070640;28;20441;-63
2023/01/31 03:49:07;;;;;;;29.73;7.68;;;3.90;99.90;;;;;;5070532;28;20033;-63
2023/01/31 03:51:36;;;;;;;30.75;6.70;;;3.90;99.90;;;;;;5070728;28;20423;-63
2023/01/31 03:54:06;;;;;;;36.35;8.35;;;3.90;99.90;;;;;;5070507;28;20024;-63
2023/01/31 03:56:44;;;;;;;35.13;7.75;;;3.90;99.90;;;;;;5070414;28;20021;-63
2023/01/31 03:59:16;;;;;;;29.40;7.70;;;3.90;99.90;;;;;;5070618;28;20024;-63
2023/01/31 04:01:47;;;;;;;32.80;7.75;;;3.90;99.90;;;;;;5070319;28;20021;-63
2023/01/31 04:04:29;;;;;;;28.27;7.10;;;3.90;99.90;;;;;;5070398;28;20025;-63
2023/01/31 04:06:55;;;;;;;30.40;7.40;;;3.90;99.90;;;;;;5070205;28;20387;-63
2023/01/31 04:09:20;;;;;;;34.55;8.23;;;4.00;99.90;;;;;;5070141;28;20036;-63
2023/01/31 04:11:48;;;;;;;41.75;8.73;;;4.00;99.90;;;;;;5068900;28;20364;-63
2023/01/31 04:14:14;;;;;;;34.80;8.63;;;4.10;99.90;;;;;;5070209;28;20025;-63
2023/01/31 04:16:40;;;;;;;33.20;7.28;;;4.00;99.90;;;;;;5069950;28;20017;-63
2023/01/31 04:19:06;;;;;;;36.97;8.30;;;4.10;99.90;;;;;;5069858;28;20024;-63
2023/01/31 04:21:31;;;;;;;31.70;7.25;;;4.10;99.90;;;;;;5069848;28;20122;-63
2023/01/31 04:23:57;;;;;;;33.80;7.00;;;4.10;99.90;;;;;;5069857;28;20027;-63
2023/01/31 04:26:22;;;;;;;38.40;8.23;;;4.10;99.90;;;;;;5069657;28;20025;-63
2023/01/31 04:28:48;;;;;;;32.50;6.78;;;4.10;99.90;;;;;;5069960;28;20020;-63
2023/01/31 04:31:14;;;;;;;28.65;7.50;;;4.10;99.90;;;;;;5068594;28;20493;-64
2023/01/31 04:33:39;;;;;;;32.03;6.95;;;4.10;99.90;;;;;;5069687;28;20024;-64
2023/01/31 04:36:06;;;;;;;30.90;6.93;;;4.10;99.90;;;;;;5069612;28;20036;-64
2023/01/31 04:38:31;;;;;;;38.28;6.60;;;4.10;99.90;;;;;;5068399;28;20035;-63
2023/01/31 04:40:57;;;;;;;33.28;6.50;;;4.10;99.90;;;;;;5068285;28;20099;-63
2023/01/31 04:43:22;;;;;;;33.17;7.28;;;4.10;99.90;;;;;;5069398;28;20025;-63
2023/01/31 04:45:48;;;;;;;26.40;6.78;;;4.10;99.90;;;;;;5069161;28;20045;-63
2023/01/31 04:48:14;;;;;;;28.90;6.50;;;4.10;99.90;;;;;;5069325;28;20052;-63
2023/01/31 04:50:39;;;;;;;30.83;5.65;;;4.10;99.90;;;;;;5069263;28;20039;-63
2023/01/31 04:53:07;;;;;;;29.13;6.05;;;4.10;99.90;;;;;;5067991;28;20025;-64
2023/01/31 04:55:33;;;;;;;32.65;6.78;;;4.00;99.90;;;;;;5069224;28;20104;-63
2023/01/31 04:57:58;;;;;;;36.33;6.57;;;4.00;99.90;;;;;;5055591;28;20051;-63
2023/01/31 05:00:24;;;;;;;38.35;8.27;;;4.10;99.90;;;;;;5054729;28;20051;-63
2023/01/31 05:02:50;;;;;;;29.55;5.88;;;4.00;99.90;;;;;;5056079;28;20029;-63
2023/01/31 05:05:15;;;;;;;33.42;7.05;;;4.10;99.90;;;;;;5055718;28;20029;-63
2023/01/31 05:07:43;;;;;;;36.58;7.55;;;4.00;99.90;;;;;;5055964;28;20032;-64
2023/01/31 05:10:09;;;;;;;29.30;6.47;;;4.10;99.90;;;;;;5054533;28;20071;-63
2023/01/31 05:12:35;;;;;;;34.72;6.95;;;4.10;99.90;;;;;;5055720;28;20108;-63
2023/01/31 05:15:00;;;;;;;34.25;6.95;;;4.10;99.90;;;;;;5054465;28;20498;-63
2023/01/31 05:17:28;;;;;;;34.17;7.00;;;4.10;99.90;;;;;;5054351;28;20500;-63
2023/01/31 05:19:55;;;;;;;36.22;7.20;;;4.10;99.90;;;;;;5055553;28;20025;-64
2023/01/31 05:22:21;;;;;;;32.58;8.27;;;4.10;99.90;;;;;;5055694;28;20054;-63
2023/01/31 05:24:47;;;;;;;32.22;6.85;;;4.20;99.90;;;;;;5055257;28;20514;-63
2023/01/31 05:27:13;;;;;;;35.35;7.38;;;4.20;99.90;;;;;;5054157;28;20032;-63
2023/01/31 05:29:39;;;;;;;37.70;6.43;;;4.20;99.90;;;;;;5055372;28;20021;-63
2023/01/31 05:32:04;;;;;;;26.77;6.28;;;4.30;99.90;;;;;;5055235;28;20479;-63
2023/01/31 05:34:32;;;;;;;37.33;6.88;;;4.30;99.90;;;;;;5055177;28;20031;-63
2023/01/31 05:36:58;;;;;;;37.45;7.90;;;;;;;;;;5055428;28;20029;-63
2023/01/31 05:39:24;;;;;;;34.03;7.00;;;4.30;99.90;;;;;;5055187;28;20029;-63
2023/01/31 05:41:49;;;;;;;27.50;7.13;;;4.40;99.90;;;;;;5055117;28;20029;-63
2023/01/31 05:44:15;;;;;;;34.50;7.53;;;4.30;99.90;;;;;;5054733;28;20027;-63
2023/01/31 05:46:41;;;;;;;30.00;6.97;;;4.30;99.90;;;;;;5055076;28;20477;-63
2023/01/31 05:49:06;;;;;;;41.25;8.00;;;4.30;99.90;;;;;;5053916;28;20032;-64
2023/01/31 05:51:32;;;;;;;31.48;7.22;;;4.30;99.90;;;;;;5053832;28;20100;-63
2023/01/31 05:53:58;;;;;;;38.83;8.10;;;4.30;99.90;;;;;;5054891;28;20364;-63
2023/01/31 05:56:24;;;;;;;32.80;7.72;;;4.30;99.90;;;;;;5054741;28;20036;-63
2023/01/31 05:58:50;;;;;;;40.50;8.05;;;4.40;99.90;;;;;;5055012;28;20382;-63
2023/01/31 06:01:21;;;;;;;36.58;8.25;;;4.40;99.90;;;;;;5053481;28;20048;-63
2023/01/31 06:03:46;;;;;;;34.05;7.55;;;4.40;99.90;;;;;;5054713;28;20029;-63
2023/01/31 06:06:12;;;;;;;36.65;9.90;;;4.40;99.90;;;;;;5053333;28;20032;-63
2023/01/31 06:08:38;;;;;;;33.17;7.90;;;4.40;99.90;;;;;;5053866;28;20478;-63
2023/01/31 06:11:04;;;;;;;27.17;7.47;;;4.40;99.90;;;;;;5054608;28;20024;-63
2023/01/31 06:13:31;;;;;;;37.45;8.82;;;4.40;99.90;;;;;;5054472;28;20021;-63
2023/01/31 06:15:56;;;;;;;33.95;10.50;;;4.50;99.90;;;;;;5054329;28;20028;-63
2023/01/31 06:18:22;;;;;;;51.10;15.85;;;4.50;99.90;;;;;;5054622;28;20074;-63
2023/01/31 06:20:48;;;;;;;40.08;8.55;;;4.50;99.90;;;;;;5053052;28;20071;-63
2023/01/31 06:23:13;;;;;;;37.03;9.98;;;4.60;99.90;;;;;;5054263;28;20471;-63
2023/01/31 06:25:39;;;;;;;42.38;12.38;;;4.60;99.90;;;;;;5052995;28;20025;-63
2023/01/31 06:28:05;;;;;;;47.08;17.35;;;4.50;99.90;;;;;;5054230;28;20021;-63
2023/01/31 06:30:31;;;;;;;40.20;12.10;;;4.50;99.90;;;;;;5054374;28;20423;-63
2023/01/31 06:32:59;;;;;;;70.90;31.02;;;4.60;99.90;;;;;;5052966;28;20048;-63
2023/01/31 06:35:25;;;;;;;51.40;20.67;;;4.50;99.90;;;;;;5052789;28;20443;-65
2023/01/31 06:37:50;;;;;;;44.53;13.00;;;4.50;99.90;;;;;;5054075;28;20072;-63
2023/01/31 06:40:16;;;;;;;40.42;12.90;;;4.50;99.90;;;;;;5054183;28;20116;-63
2023/01/31 06:42:42;;;;;;;34.17;11.05;;;4.50;99.90;;;;;;5052443;28;20025;-63
2023/01/31 06:45:08;;;;;;;42.10;10.45;;;4.50;99.90;;;;;;5053745;28;20470;-64
2023/01/31 06:47:34;;;;;;;36.80;10.18;;;4.50;99.90;;;;;;5052898;28;20107;-63
2023/01/31 06:49:59;;;;;;;30.92;10.15;;;4.50;99.90;;;;;;5053725;28;20055;-63
2023/01/31 06:52:25;;;;;;;33.28;10.85;;;4.60;99.90;;;;;;5053717;28;20021;-63
2023/01/31 06:54:50;;;;;;;46.70;13.20;;;4.60;99.90;;;;;;5053725;28;20565;-63
2023/01/31 06:57:16;;;;;;;38.95;11.40;;;4.60;99.90;;;;;;5053871;28;20040;-63
2023/01/31 06:59:41;;;;;;;42.35;11.45;;;4.60;99.90;;;;;;5053562;28;20029;-63
2023/01/31 07:02:09;;;;;;;47.75;11.90;;;4.60;99.90;;;;;;5053641;28;20029;-63
2023/01/31 07:04:34;;;;;;;44.97;12.13;;;4.70;99.90;;;;;;5053321;28;20513;-63
2023/01/31 07:07:00;;;;;;;37.03;11.13;;;4.70;99.90;;;;;;5053391;28;20013;-63
2023/01/31 07:09:25;;;;;;;43.85;11.93;;;4.80;99.90;;;;;;5052213;28;20029;-63
2023/01/31 07:11:51;;;;;;;35.42;11.73;;;4.80;99.90;;;;;;5052966;28;20021;-63
2023/01/31 07:14:16;;;;;;;45.88;14.63;;;4.80;99.90;;;;;;5053506;28;20418;-63
2023/01/31 07:16:42;;;;;;;69.95;28.25;;;4.80;99.90;;;;;;5052475;28;20478;-63
2023/01/31 07:19:07;;;;;;;33.63;11.55;;;4.90;99.90;;;;;;5051667;28;20075;-65
2023/01/31 07:21:34;;;;;;;39.50;12.68;;;4.90;99.90;;;;;;5051719;28;20021;-63
2023/01/31 07:24:00;;;;;;;41.22;13.60;;;4.90;99.90;;;;;;5052768;28;20051;-64
2023/01/31 07:26:26;;;;;;;40.15;12.15;;;5.00;99.90;;;;;;5053210;28;20059;-63
2023/01/31 07:28:52;;;;;;;36.35;11.13;;;5.00;99.90;;;;;;5052742;28;20029;-63
2023/01/31 07:31:18;;;;;;;36.17;12.20;;;5.10;99.90;;;;;;5051892;28;20386;-63
2023/01/31 07:33:43;;;;;;;38.05;11.70;;;5.10;99.90;;;;;;5052937;28;20021;-63
2023/01/31 07:36:13;;;;;;;38.00;11.50;;;5.10;99.90;;;;;;5053108;28;20417;-64
2023/01/31 07:38:39;;;;;;;39.05;12.55;;;5.10;99.90;;;;;;5052798;28;20479;-64
2023/01/31 07:41:04;;;;;;;39.50;11.15;;;5.20;99.90;;;;;;5052729;28;20074;-63
2023/01/31 07:43:31;;;;;;;39.42;12.00;;;5.10;99.90;;;;;;5059907;28;20487;-63
2023/01/31 07:45:57;;;;;;;32.95;11.40;;;5.10;99.90;;;;;;5063179;28;20520;-63
2023/01/31 07:48:22;;;;;;;38.75;11.98;;;5.10;99.90;;;;;;5060294;28;20029;-63
2023/01/31 07:50:51;;;;;;;38.78;11.63;;;5.20;99.90;;;;;;5071556;28;20021;-63
2023/01/31 07:53:17;;;;;;;40.55;12.45;;;5.20;99.90;;;;;;5062485;28;20017;-63
2023/01/31 07:55:46;;;;;;;39.80;12.52;;;5.30;99.90;;;;;;5052760;28;20033;-63
2023/01/31 07:58:13;;;;;;;33.00;11.68;;;5.30;99.90;;;;;;5052840;28;20029;-63
2023/01/31 08:03:35;;;;;;;40.25;12.57;;;5.50;99.90;;;;;;5051804;28;20078;-63
2023/01/31 08:06:05;;;;;;;40.88;12.95;;;5.50;99.90;;;;;;5052569;28;20025;-63
2023/01/31 08:08:31;;;;;;;45.28;18.88;;;5.50;99.90;;;;;;5031263;28;20026;-63
2023/01/31 08:10:56;;;;;;;44.22;17.00;;;5.50;99.90;;;;;;5051975;28;20021;-62
2023/01/31 08:13:22;;;;;;;39.83;11.32;;;5.60;99.90;;;;;;5052619;28;20029;-63
2023/01/31 08:15:51;;;;;;;36.75;11.02;;;5.50;99.90;;;;;;5052606;28;20386;-63
2023/01/31 08:18:16;;;;;;;38.22;10.93;;;5.50;99.90;;;;;;5052527;28;20037;-63
2023/01/31 08:20:42;;;;;;;33.58;10.45;;;5.50;99.90;;;;;;5052462;28;20036;-64
2023/01/31 08:23:07;;;;;;;42.28;12.05;;;5.50;99.90;;;;;;5052371;28;20025;-63
2023/01/31 08:25:33;;;;;;;35.20;10.32;;;5.50;99.90;;;;;;5052508;28;20119;-63
2023/01/31 08:27:59;;;;;;;39.70;11.60;;;5.50;99.90;;;;;;5052397;28;20033;-63
2023/01/31 08:30:25;;;;;;;38.00;10.40;;;5.50;99.90;;;;;;5050921;28;20514;-63
2023/01/31 08:32:50;;;;;;;28.95;9.73;;;5.50;99.90;;;;;;5054489;28;20025;-63
2023/01/31 08:35:16;;;;;;;31.85;9.68;;;5.50;99.90;;;;;;5055961;28;20394;-63
2023/01/31 08:37:42;;;;;;;30.42;10.25;;;5.60;99.90;;;;;;5054863;28;20029;-63
2023/01/31 08:40:08;;;;;;;51.22;19.55;;;5.60;99.90;;;;;;5055642;28;20021;-63
2023/01/31 08:42:34;;;;;;;41.70;13.15;;;5.60;99.90;;;;;;5056216;28;20029;-63
2023/01/31 08:44:59;;;;;;;34.13;10.95;;;5.60;99.90;;;;;;5055615;28;20438;-63
2023/01/31 08:47:25;;;;;;;33.67;9.13;;;5.60;99.90;;;;;;5054394;28;20032;-63
2023/01/31 08:49:50;;;;;;;32.42;9.70;;;5.60;99.90;;;;;;5054098;28;20029;-63
2023/01/31 08:52:16;;;;;;;40.97;10.45;;;5.50;99.90;;;;;;5054611;28;20108;-63
2023/01/31 08:54:41;;;;;;;36.35;10.68;;;5.50;99.90;;;;;;5055665;28;20021;-63
2023/01/31 08:57:07;;;;;;;32.80;9.20;;;5.50;99.90;;;;;;5055797;28;20082;-63
2023/01/31 08:59:32;;;;;;;34.33;9.68;;;5.50;99.90;;;;;;5055475;28;20036;-63
2023/01/31 09:01:58;;;;;;;35.40;11.35;;;5.50;99.90;;;;;;5055337;28;20029;-63
2023/01/31 09:04:24;;;;;;;37.78;10.35;;;5.40;99.90;;;;;;5055595;28;20392;-62
2023/01/31 09:06:49;;;;;;;30.48;10.40;;;5.40;99.90;;;;;;5055491;28;20036;-63
2023/01/31 09:09:15;;;;;;;48.20;10.63;;;5.20;99.90;;;;;;5055281;28;20820;-63
2023/01/31 09:11:40;;;;;;;46.55;10.88;;;5.20;99.90;;;;;;5054311;28;20024;-64
2023/01/31 09:14:06;;;;;;;39.80;9.80;;;5.20;99.90;;;;;;5037559;28;20108;-63
2023/01/31 09:16:31;;;;;;;38.70;10.23;;;5.20;99.90;;;;;;5055176;28;20064;-64
2023/01/31 09:18:57;;;;;;;43.15;11.02;;;5.20;99.90;;;;;;5055284;28;20093;-63
2023/01/31 09:21:23;;;;;;;40.05;9.88;;;5.20;99.90;;;;;;5034014;28;20030;-63
2023/01/31 09:23:56;;;;;;;43.20;11.00;;;5.20;99.90;;;;;;5044774;28;20035;-63
2023/01/31 09:26:22;;;;;;;25.58;9.48;;;5.30;99.90;;;;;;5054413;28;20040;-64
2023/01/31 09:28:49;;;;;;;31.63;9.43;;;5.30;99.90;;;;;;5053184;28;20398;-63
2023/01/31 09:31:17;;;;;;;32.72;9.70;;;5.30;99.90;;;;;;5054013;28;20425;-63
2023/01/31 09:33:43;;;;;;;33.90;9.25;;;5.30;99.90;;;;;;5053835;28;20029;-63
2023/01/31 09:36:13;;;;;;;35.67;10.18;;;5.30;99.90;;;;;;5054862;28;20064;-63
2023/01/31 09:38:40;;;;;;;30.65;9.10;;;5.30;99.90;;;;;;5055126;28;20032;-63
2023/01/31 09:41:22;;;;;;;30.50;9.07;;;5.30;99.90;;;;;;5054758;28;20021;-63
2023/01/31 09:43:53;;;;;;;26.27;8.65;;;5.30;99.90;;;;;;5054632;28;20017;-66
2023/01/31 09:46:23;;;;;;;29.58;9.43;;;5.30;99.90;;;;;;5054100;28;20556;-62
2023/01/31 09:48:53;;;;;;;24.55;8.90;;;5.30;99.90;;;;;;5055097;28;20052;-62
2023/01/31 09:51:19;;;;;;;24.80;9.05;;;5.20;99.90;;;;;;5054825;28;20493;-62
2023/01/31 09:53:46;;;;;;;28.42;7.60;;;5.30;99.90;;;;;;5054125;28;20072;-63
2023/01/31 09:56:23;;;;;;;23.40;7.18;;;5.40;99.90;;;;;;5054697;28;20059;-63
2023/01/31 09:59:02;;;;;;;29.20;7.97;;;5.50;99.90;;;;;;5033691;28;20067;-63
2023/01/31 10:01:59;;;;;;;29.75;7.70;;;5.50;99.90;;;;;;5045796;28;20029;-63
2023/01/31 10:04:39;;;;;;;24.60;7.63;;;5.50;99.90;;;;;;5054083;28;20036;-63
2023/01/31 10:10:16;;;;;;;24.92;8.00;;;5.50;99.90;;;;;;5110845;27;20388;-63
2023/01/31 10:12:47;;;;;;;27.02;8.38;;;5.50;99.90;;;;;;5100007;28;20016;-63
2023/01/31 10:15:38;;;;;;;29.92;8.35;;;5.40;99.90;;;;;;5091235;28;20416;-63
2023/01/31 10:18:10;;;;;;;29.13;9.30;;;5.40;99.90;;;;;;5095488;28;20482;-62
2023/01/31 10:20:48;;;;;;;35.28;9.32;;;5.30;99.90;;;;;;5099715;28;20024;-63
2023/01/31 10:23:39;;;;;;;29.77;8.30;;;5.30;99.90;;;;;;5079930;28;20390;-63
2023/01/31 10:26:11;;;;;;;28.10;9.45;;;5.40;99.90;;;;;;5090139;28;20058;-62
2023/01/31 10:31:45;;;;;;;46.47;17.75;;;5.40;99.90;;;;;;5090625;28;20112;-63
2023/01/31 10:34:20;;;;;;;32.83;10.55;;;5.50;99.90;;;;;;5090400;28;20054;-63
2023/01/31 10:37:08;;;;;;;30.48;12.13;;;5.50;99.90;;;;;;5090544;28;20032;-63
2023/01/31 10:39:40;;;;;;;42.03;14.80;;;5.60;99.90;;;;;;5097958;28;20393;-62
2023/01/31 10:42:31;;;;;;;44.75;14.80;;;5.60;99.90;;;;;;5111038;28;20043;-62
2023/01/31 10:45:18;;;;;;;33.63;12.45;;;5.60;99.90;;;;;;5110944;28;20395;-62
2023/01/31 10:48:12;;;;;;;29.67;12.27;;;5.60;99.90;;;;;;5069677;28;20370;-62
2023/01/31 10:51:09;;;;;;;23.60;9.70;;;5.60;99.90;;;;;;5069808;28;20104;-62
2023/01/31 10:54:06;;;;;;;29.15;8.93;;;5.70;99.90;;;;;;5070017;28;20013;-62
2023/01/31 10:56:36;;;;;;;27.42;7.93;;;5.80;99.90;;;;;;5087068;28;20035;-63
2023/01/31 10:59:04;;;;;;;26.90;7.32;;;5.90;99.90;;;;;;5090072;28;20481;-62
2023/01/31 11:01:30;;;;;;;24.48;8.35;;;5.90;99.90;;;;;;5090180;28;20386;-62
2023/01/31 11:03:56;;;;;;;22.85;7.50;;;5.90;99.90;;;;;;5089987;28;20036;-63
2023/01/31 11:06:22;;;;;;;23.75;8.32;;;5.90;99.90;;;;;;5090093;28;20381;-63
2023/01/31 11:08:56;;;;;;;26.05;8.40;;;5.80;99.90;;;;;;5089859;28;20463;-63
2023/01/31 11:11:25;;;;;;;26.38;8.90;;;5.80;99.90;;;;;;5089881;28;20482;-63
2023/01/31 11:14:16;;;;;;;28.30;8.88;;;5.80;99.90;;;;;;5088510;28;20020;-63
2023/01/31 11:16:42;;;;;;;31.88;10.27;;;5.70;99.90;;;;;;5089483;28;20024;-63
2023/01/31 11:19:25;;;;;;;31.40;10.35;;;5.70;99.90;;;;;;5089468;28;20056;-63
2023/01/31 11:21:52;;;;;;;25.40;10.50;;;5.60;99.90;;;;;;5089429;28;20033;-63
2023/01/31 11:24:29;;;;;;;29.90;10.13;;;5.50;99.90;;;;;;5089629;28;20021;-63
2023/01/31 11:26:59;;;;;;;31.33;9.73;;;5.50;99.90;;;;;;5089126;28;20052;-63
2023/01/31 11:29:29;;;;;;;24.50;8.98;;;5.50;99.90;;;;;;5089078;28;20055;-63
2023/01/31 11:31:57;;;;;;;28.70;9.73;;;5.50;99.90;;;;;;5087890;28;20023;-63
2023/01/31 11:34:26;;;;;;;28.80;10.35;;;5.60;99.90;;;;;;5089032;28;20028;-63
2023/01/31 11:36:51;;;;;;;27.33;9.75;;;5.60;99.90;;;;;;5089134;28;20095;-63
2023/01/31 11:39:30;;;;;;;24.98;8.65;;;5.60;99.90;;;;;;5089317;28;20070;-63
2023/01/31 11:42:04;;;;;;;25.45;9.88;;;5.60;99.90;;;;;;5078134;28;20032;-63
2023/01/31 11:44:29;;;;;;;26.95;9.55;;;5.70;99.90;;;;;;5076031;28;20025;-63
2023/01/31 11:46:58;;;;;;;29.05;11.00;;;5.70;99.90;;;;;;5075497;28;20119;-63
2023/01/31 11:49:40;;;;;;;29.80;10.10;;;5.70;99.90;;;;;;5075489;28;20486;-63
2023/01/31 11:52:28;;;;;;;25.30;9.85;;;5.70;99.90;;;;;;5073959;28;20539;-63
2023/01/31 11:54:56;;;;;;;25.48;10.60;;;5.80;99.90;;;;;;5064029;28;20055;-63
2023/01/31 11:57:32;;;;;;;31.27;11.18;;;5.80;99.90;;;;;;5075476;28;20433;-63
2023/01/31 12:00:00;;;;;;;32.95;11.73;;;5.80;99.90;;;;;;5075621;28;20056;-63
2023/01/31 12:02:38;;;;;;;22.95;10.85;;;5.90;99.90;;;;;;5075157;28;20031;-63
2023/01/31 12:05:11;;;;;;;25.27;11.20;;;5.90;99.90;;;;;;5073578;28;20071;-64
2023/01/31 12:07:46;;;;;;;31.05;11.55;;;6.00;99.90;;;;;;5055440;28;20044;-63
2023/01/31 12:10:40;;;;;;;28.25;13.13;;;6.00;99.90;;;;;;5055178;28;20032;-63
2023/01/31 12:13:22;;;;;;;26.13;13.18;;;6.00;99.90;;;;;;5070607;28;20031;-63
2023/01/31 12:16:04;;;;;;;29.27;13.48;;;6.00;99.90;;;;;;5059881;28;20477;-63
2023/01/31 12:18:59;;;;;;;33.72;13.48;;;5.90;99.90;;;;;;5075014;28;20052;-63
2023/01/31 12:24:36;;;;;;;45.08;17.50;;;6.00;99.90;;;;;;5110701;27;20363;-63
2023/01/31 12:27:12;;;;;;;31.58;15.07;;;6.10;99.90;;;;;;5110841;28;20023;-63
2023/01/31 12:30:05;;;;;;;38.80;15.73;;;6.00;99.90;;;;;;5110913;28;20088;-63
2023/01/31 12:33:07;;;;;;;31.80;16.30;;;6.10;99.90;;;;;;5096582;28;20035;-63
2023/01/31 12:36:00;;;;;;;38.20;17.27;;;6.10;99.90;;;;;;5110302;28;20027;-62
2023/01/31 12:38:59;;;;;;;41.65;17.90;;;6.10;99.90;;;;;;5109013;28;20042;-63
2023/01/31 12:41:38;;;;;;;35.60;19.33;;;6.20;99.90;;;;;;5110151;28;20052;-63
2023/01/31 12:44:31;;;;;;;41.45;21.00;;;6.20;99.90;;;;;;5110814;28;20034;-63
2023/01/31 12:47:23;;;;;;;44.95;17.33;;;6.20;99.90;;;;;;5110233;28;20062;-63
2023/01/31 12:50:15;;;;;;;49.70;21.77;;;6.20;99.90;;;;;;5110019;28;20509;-63
2023/01/31 12:52:57;;;;;;;51.45;22.33;;;6.20;99.90;;;;;;5110439;28;20020;-63
2023/01/31 12:55:49;;;;;;;51.92;24.40;;;6.20;99.90;;;;;;5110061;28;20031;-63
2023/01/31 12:58:55;;;;;;;51.90;28.60;;;6.20;99.90;;;;;;5099805;28;20038;-63
2023/01/31 13:05:02;;;;;;;62.40;28.88;;;6.20;99.90;;;;;;5090292;28;20406;-63
2023/01/31 13:07:49;;;;;;;54.33;29.15;;;6.20;99.90;;;;;;5089074;28;20448;-63
2023/01/31 13:10:35;;;;;;;64.88;30.45;;;6.20;99.90;;;;;;5089513;28;20436;-63
2023/01/31 13:13:04;;;;;;;60.53;31.50;;;6.20;99.90;;;;;;5077427;28;20098;-63
2023/01/31 13:15:53;;;;;;;71.75;35.85;;;6.10;99.90;;;;;;5071475;28;20078;-62
2023/01/31 13:18:20;;;;;;;70.88;32.95;;;6.10;99.90;;;;;;5070105;28;20031;-63
2023/01/31 13:20:58;;;;;;;71.32;36.33;;;6.10;99.90;;;;;;5070332;28;20029;-63
2023/01/31 13:23:30;;;;;;;75.75;36.80;;;6.10;99.90;;;;;;5070174;28;20120;-63
2023/01/31 13:26:13;;;;;;;83.57;38.05;;;6.00;99.90;;;;;;5069936;28;20497;-63
2023/01/31 13:28:49;;;;;;;72.35;37.28;;;6.00;99.90;;;;;;5069976;28;20024;-63